sensor_id;sensor_type;location;lat;lon;timestamp;P1;durP1;ratioP1;P2;durP2;ratioP2
26098;SDS011;13860;52.370;6.764;2024-02-15T00:00:26;18.75;;;11.43;;
26098;SDS011;13860;52.370;6.764;2024-02-15T00:03:34;15.93;;;10.88;;
26098;SDS011;13860;52.370;6.764;2024-02-15T00:06:39;22.05;;;11.00;;
26098;SDS011;13860;52.370;6.764;2024-02-15T00:09:49;22.63;;;10.40;;
26098;SDS011;13860;52.370;6.764;2024-02-15T00:12:55;17.65;;;9.60;;
26098;SDS011;13860;52.370;6.764;2024-02-15T00:16:03;15.63;;;8.82;;
26098;SDS011;13860;52.370;6.764;2024-02-15T00:19:09;18.92;;;10.85;;
26098;SDS011;13860;52.370;6.764;2024-02-15T00:22:17;23.88;;;11.25;;
26098;SDS011;13860;52.370;6.764;2024-02-15T00:25:26;15.93;;;10.50;;
26098;SDS011;13860;52.370;6.764;2024-02-15T00:28:34;17.73;;;10.18;;
26098;SDS011;13860;52.370;6.764;2024-02-15T00:31:40;20.98;;;10.35;;
26098;SDS011;13860;52.370;6.764;2024-02-15T00:34:48;18.95;;;10.10;;
26098;SDS011;13860;52.370;6.764;2024-02-15T00:37:54;20.17;;;10.25;;
26098;SDS011;13860;52.370;6.764;2024-02-15T00:41:04;15.80;;;10.05;;
26098;SDS011;13860;52.370;6.764;2024-02-15T00:44:10;24.23;;;9.80;;
26098;SDS011;13860;52.370;6.764;2024-02-15T00:47:18;22.05;;;9.13;;
26098;SDS011;13860;52.370;6.764;2024-02-15T00:50:23;20.30;;;9.65;;
26098;SDS011;13860;52.370;6.764;2024-02-15T00:53:31;24.60;;;9.77;;
26098;SDS011;13860;52.370;6.764;2024-02-15T00:56:39;19.15;;;9.48;;
26098;SDS011;13860;52.370;6.764;2024-02-15T00:59:47;21.85;;;9.00;;
26098;SDS011;13860;52.370;6.764;2024-02-15T01:02:54;14.27;;;8.70;;
26098;SDS011;13860;52.370;6.764;2024-02-15T01:06:02;16.48;;;8.35;;
26098;SDS011;13860;52.370;6.764;2024-02-15T01:09:08;14.10;;;8.85;;
26098;SDS011;13860;52.370;6.764;2024-02-15T01:12:19;15.65;;;8.48;;
26098;SDS011;13860;52.370;6.764;2024-02-15T01:15:25;16.23;;;8.15;;
26098;SDS011;13860;52.370;6.764;2024-02-15T01:18:33;14.73;;;7.63;;
26098;SDS011;13860;52.370;6.764;2024-02-15T01:21:40;18.27;;;8.32;;
26098;SDS011;13860;52.370;6.764;2024-02-15T01:25:00;17.55;;;8.55;;
26098;SDS011;13860;52.370;6.764;2024-02-15T01:28:08;14.25;;;8.43;;
26098;SDS011;13860;52.370;6.764;2024-02-15T01:31:16;22.17;;;8.48;;
26098;SDS011;13860;52.370;6.764;2024-02-15T01:34:22;21.73;;;9.60;;
26098;SDS011;13860;52.370;6.764;2024-02-15T01:37:30;19.17;;;8.73;;
26098;SDS011;13860;52.370;6.764;2024-02-15T01:40:35;16.65;;;9.00;;
26098;SDS011;13860;52.370;6.764;2024-02-15T01:43:45;16.38;;;9.05;;
26098;SDS011;13860;52.370;6.764;2024-02-15T01:46:52;15.52;;;8.98;;
26098;SDS011;13860;52.370;6.764;2024-02-15T01:50:00;16.90;;;8.60;;
26098;SDS011;13860;52.370;6.764;2024-02-15T01:53:07;16.50;;;7.65;;
26098;SDS011;13860;52.370;6.764;2024-02-15T01:56:15;24.40;;;9.07;;
26098;SDS011;13860;52.370;6.764;2024-02-15T01:59:25;18.35;;;9.00;;
26098;SDS011;13860;52.370;6.764;2024-02-15T02:02:33;20.85;;;9.63;;
26098;SDS011;13860;52.370;6.764;2024-02-15T02:05:40;16.83;;;8.85;;
26098;SDS011;13860;52.370;6.764;2024-02-15T02:08:48;17.80;;;9.77;;
26098;SDS011;13860;52.370;6.764;2024-02-15T02:11:53;20.48;;;9.70;;
26098;SDS011;13860;52.370;6.764;2024-02-15T02:15:05;23.20;;;10.18;;
26098;SDS011;13860;52.370;6.764;2024-02-15T02:18:13;17.60;;;9.00;;
26098;SDS011;13860;52.370;6.764;2024-02-15T02:21:20;21.15;;;9.32;;
26098;SDS011;13860;52.370;6.764;2024-02-15T02:24:27;21.88;;;11.18;;
26098;SDS011;13860;52.370;6.764;2024-02-15T02:27:39;20.42;;;10.38;;
26098;SDS011;13860;52.370;6.764;2024-02-15T02:30:44;20.60;;;9.40;;
26098;SDS011;13860;52.370;6.764;2024-02-15T02:33:52;22.05;;;10.57;;
26098;SDS011;13860;52.370;6.764;2024-02-15T02:37:00;22.85;;;11.30;;
26098;SDS011;13860;52.370;6.764;2024-02-15T02:40:09;20.08;;;11.10;;
26098;SDS011;13860;52.370;6.764;2024-02-15T02:43:19;17.30;;;10.80;;
26098;SDS011;13860;52.370;6.764;2024-02-15T02:46:26;22.70;;;12.15;;
26098;SDS011;13860;52.370;6.764;2024-02-15T02:49:32;24.27;;;13.07;;
26098;SDS011;13860;52.370;6.764;2024-02-15T02:52:41;24.30;;;13.23;;
26098;SDS011;13860;52.370;6.764;2024-02-15T02:55:47;28.95;;;14.07;;
26098;SDS011;13860;52.370;6.764;2024-02-15T02:58:57;23.95;;;14.88;;
26098;SDS011;13860;52.370;6.764;2024-02-15T03:02:02;29.75;;;15.15;;
26098;SDS011;13860;52.370;6.764;2024-02-15T03:05:12;26.52;;;14.98;;
26098;SDS011;13860;52.370;6.764;2024-02-15T03:08:18;30.15;;;16.10;;
26098;SDS011;13860;52.370;6.764;2024-02-15T03:11:26;32.53;;;15.15;;
26098;SDS011;13860;52.370;6.764;2024-02-15T03:14:34;35.90;;;15.93;;
26098;SDS011;13860;52.370;6.764;2024-02-15T03:17:42;30.20;;;16.13;;
26098;SDS011;13860;52.370;6.764;2024-02-15T03:20:49;28.52;;;15.32;;
26098;SDS011;13860;52.370;6.764;2024-02-15T03:23:57;31.25;;;16.55;;
26098;SDS011;13860;52.370;6.764;2024-02-15T03:27:02;31.35;;;16.85;;
26098;SDS011;13860;52.370;6.764;2024-02-15T03:30:13;29.95;;;16.10;;
26098;SDS011;13860;52.370;6.764;2024-02-15T03:33:19;31.05;;;15.63;;
26098;SDS011;13860;52.370;6.764;2024-02-15T03:36:30;37.45;;;15.80;;
26098;SDS011;13860;52.370;6.764;2024-02-15T03:39:36;28.30;;;15.32;;
26098;SDS011;13860;52.370;6.764;2024-02-15T03:42:43;30.85;;;15.60;;
26098;SDS011;13860;52.370;6.764;2024-02-15T03:45:51;36.65;;;15.57;;
26098;SDS011;13860;52.370;6.764;2024-02-15T03:48:59;26.58;;;15.07;;
26098;SDS011;13860;52.370;6.764;2024-02-15T03:52:04;22.38;;;14.82;;
26098;SDS011;13860;52.370;6.764;2024-02-15T03:55:14;29.50;;;15.40;;
26098;SDS011;13860;52.370;6.764;2024-02-15T03:58:20;22.08;;;13.63;;
26098;SDS011;13860;52.370;6.764;2024-02-15T04:01:30;29.67;;;14.98;;
26098;SDS011;13860;52.370;6.764;2024-02-15T04:04:36;28.65;;;15.70;;
26098;SDS011;13860;52.370;6.764;2024-02-15T04:07:46;32.13;;;15.43;;
26098;SDS011;13860;52.370;6.764;2024-02-15T04:10:51;25.25;;;14.50;;
26098;SDS011;13860;52.370;6.764;2024-02-15T04:14:01;28.55;;;13.93;;
26098;SDS011;13860;52.370;6.764;2024-02-15T04:17:09;28.80;;;15.13;;
26098;SDS011;13860;52.370;6.764;2024-02-15T04:20:17;25.10;;;14.50;;
26098;SDS011;13860;52.370;6.764;2024-02-15T04:23:23;32.85;;;14.57;;
26098;SDS011;13860;52.370;6.764;2024-02-15T04:26:30;25.63;;;13.75;;
26098;SDS011;13860;52.370;6.764;2024-02-15T04:29:36;26.48;;;13.13;;
26098;SDS011;13860;52.370;6.764;2024-02-15T04:32:47;28.67;;;13.43;;
26098;SDS011;13860;52.370;6.764;2024-02-15T04:35:53;25.60;;;12.18;;
26098;SDS011;13860;52.370;6.764;2024-02-15T04:39:04;33.67;;;13.32;;
26098;SDS011;13860;52.370;6.764;2024-02-15T04:42:11;25.05;;;12.10;;
26098;SDS011;13860;52.370;6.764;2024-02-15T04:45:21;20.63;;;11.18;;
26098;SDS011;13860;52.370;6.764;2024-02-15T04:48:36;22.88;;;11.65;;
26098;SDS011;13860;52.370;6.764;2024-02-15T04:51:46;35.30;;;12.52;;
26098;SDS011;13860;52.370;6.764;2024-02-15T04:54:52;23.40;;;10.48;;
26098;SDS011;13860;52.370;6.764;2024-02-15T04:58:02;24.48;;;10.95;;
26098;SDS011;13860;52.370;6.764;2024-02-15T05:01:08;27.17;;;10.05;;
26098;SDS011;13860;52.370;6.764;2024-02-15T05:04:18;28.15;;;11.02;;
26098;SDS011;13860;52.370;6.764;2024-02-15T05:07:24;22.77;;;10.55;;
26098;SDS011;13860;52.370;6.764;2024-02-15T05:10:32;18.70;;;9.95;;
26098;SDS011;13860;52.370;6.764;2024-02-15T05:13:37;26.90;;;11.02;;
26098;SDS011;13860;52.370;6.764;2024-02-15T05:16:45;28.30;;;11.60;;
26098;SDS011;13860;52.370;6.764;2024-02-15T05:19:53;23.23;;;11.82;;
26098;SDS011;13860;52.370;6.764;2024-02-15T05:23:03;23.92;;;12.25;;
26098;SDS011;13860;52.370;6.764;2024-02-15T05:26:08;27.10;;;13.40;;
26098;SDS011;13860;52.370;6.764;2024-02-15T05:29:20;33.30;;;13.45;;
26098;SDS011;13860;52.370;6.764;2024-02-15T05:32:25;23.45;;;13.68;;
26098;SDS011;13860;52.370;6.764;2024-02-15T05:35:35;32.95;;;13.75;;
26098;SDS011;13860;52.370;6.764;2024-02-15T05:38:41;33.45;;;13.45;;
26098;SDS011;13860;52.370;6.764;2024-02-15T05:41:50;25.75;;;13.10;;
26098;SDS011;13860;52.370;6.764;2024-02-15T05:44:55;36.22;;;12.35;;
26098;SDS011;13860;52.370;6.764;2024-02-15T05:48:21;23.48;;;11.30;;
26098;SDS011;13860;52.370;6.764;2024-02-15T05:51:29;33.10;;;11.40;;
26098;SDS011;13860;52.370;6.764;2024-02-15T05:54:38;31.40;;;10.77;;
26098;SDS011;13860;52.370;6.764;2024-02-15T05:57:43;21.55;;;10.68;;
26098;SDS011;13860;52.370;6.764;2024-02-15T06:00:51;21.77;;;10.32;;
26098;SDS011;13860;52.370;6.764;2024-02-15T06:03:57;24.58;;;9.48;;
26098;SDS011;13860;52.370;6.764;2024-02-15T06:07:07;23.17;;;9.07;;
26098;SDS011;13860;52.370;6.764;2024-02-15T06:10:13;28.63;;;7.88;;
26098;SDS011;13860;52.370;6.764;2024-02-15T06:13:22;23.98;;;8.65;;
26098;SDS011;13860;52.370;6.764;2024-02-15T06:16:28;31.85;;;8.77;;
26098;SDS011;13860;52.370;6.764;2024-02-15T06:19:35;28.23;;;7.93;;
26098;SDS011;13860;52.370;6.764;2024-02-15T06:22:44;21.40;;;7.38;;
26098;SDS011;13860;52.370;6.764;2024-02-15T06:25:52;23.05;;;7.50;;
26098;SDS011;13860;52.370;6.764;2024-02-15T06:28:58;17.95;;;7.00;;
26098;SDS011;13860;52.370;6.764;2024-02-15T06:32:19;25.30;;;7.55;;
26098;SDS011;13860;52.370;6.764;2024-02-15T06:35:37;16.63;;;6.63;;
26098;SDS011;13860;52.370;6.764;2024-02-15T06:39:00;21.70;;;5.80;;
26098;SDS011;13860;52.370;6.764;2024-02-15T06:42:18;15.32;;;6.57;;
26098;SDS011;13860;52.370;6.764;2024-02-15T06:45:26;17.58;;;6.28;;
26098;SDS011;13860;52.370;6.764;2024-02-15T06:48:34;13.48;;;5.03;;
26098;SDS011;13860;52.370;6.764;2024-02-15T06:51:41;21.20;;;6.43;;
26098;SDS011;13860;52.370;6.764;2024-02-15T06:54:53;17.42;;;5.65;;
26098;SDS011;13860;52.370;6.764;2024-02-15T06:58:01;15.32;;;6.00;;
26098;SDS011;13860;52.370;6.764;2024-02-15T07:01:07;12.70;;;4.65;;
26098;SDS011;13860;52.370;6.764;2024-02-15T07:04:17;15.88;;;5.80;;
26098;SDS011;13860;52.370;6.764;2024-02-15T07:07:23;15.25;;;5.97;;
26098;SDS011;13860;52.370;6.764;2024-02-15T07:10:34;17.98;;;5.82;;
26098;SDS011;13860;52.370;6.764;2024-02-15T07:13:41;13.70;;;5.13;;
26098;SDS011;13860;52.370;6.764;2024-02-15T07:16:49;12.73;;;5.15;;
26098;SDS011;13860;52.370;6.764;2024-02-15T07:19:55;15.65;;;5.25;;
26098;SDS011;13860;52.370;6.764;2024-02-15T07:23:03;12.45;;;5.00;;
26098;SDS011;13860;52.370;6.764;2024-02-15T07:26:12;11.48;;;5.38;;
26098;SDS011;13860;52.370;6.764;2024-02-15T07:29:20;11.57;;;5.22;;
26098;SDS011;13860;52.370;6.764;2024-02-15T07:32:27;13.13;;;5.45;;
26098;SDS011;13860;52.370;6.764;2024-02-15T07:35:35;11.27;;;5.30;;
26098;SDS011;13860;52.370;6.764;2024-02-15T07:38:43;16.15;;;5.60;;
26098;SDS011;13860;52.370;6.764;2024-02-15T07:41:55;16.17;;;5.63;;
26098;SDS011;13860;52.370;6.764;2024-02-15T07:45:00;18.40;;;6.85;;
26098;SDS011;13860;52.370;6.764;2024-02-15T07:48:10;12.20;;;6.03;;
26098;SDS011;13860;52.370;6.764;2024-02-15T07:51:17;9.88;;;5.35;;
26098;SDS011;13860;52.370;6.764;2024-02-15T07:54:25;12.98;;;5.13;;
26098;SDS011;13860;52.370;6.764;2024-02-15T07:57:34;19.52;;;5.80;;
26098;SDS011;13860;52.370;6.764;2024-02-15T08:00:42;12.50;;;5.25;;
26098;SDS011;13860;52.370;6.764;2024-02-15T08:03:48;11.15;;;5.05;;
26098;SDS011;13860;52.370;6.764;2024-02-15T08:06:58;13.77;;;4.95;;
26098;SDS011;13860;52.370;6.764;2024-02-15T08:10:05;12.15;;;4.80;;
26098;SDS011;13860;52.370;6.764;2024-02-15T08:13:19;11.60;;;4.40;;
26098;SDS011;13860;52.370;6.764;2024-02-15T08:16:30;6.57;;;3.33;;
26098;SDS011;13860;52.370;6.764;2024-02-15T08:19:39;12.18;;;4.18;;
26098;SDS011;13860;52.370;6.764;2024-02-15T08:22:48;10.30;;;4.15;;
26098;SDS011;13860;52.370;6.764;2024-02-15T08:25:56;16.70;;;5.72;;
26098;SDS011;13860;52.370;6.764;2024-02-15T08:29:04;11.95;;;4.57;;
26098;SDS011;13860;52.370;6.764;2024-02-15T08:32:13;16.90;;;4.82;;
26098;SDS011;13860;52.370;6.764;2024-02-15T08:35:19;14.32;;;4.22;;
26098;SDS011;13860;52.370;6.764;2024-02-15T08:38:27;9.68;;;3.70;;
26098;SDS011;13860;52.370;6.764;2024-02-15T08:41:32;12.27;;;4.30;;
26098;SDS011;13860;52.370;6.764;2024-02-15T08:44:43;9.30;;;4.20;;
26098;SDS011;13860;52.370;6.764;2024-02-15T08:47:48;13.57;;;3.70;;
26098;SDS011;13860;52.370;6.764;2024-02-15T08:50:57;10.10;;;3.70;;
26098;SDS011;13860;52.370;6.764;2024-02-15T08:54:03;13.45;;;4.35;;
26098;SDS011;13860;52.370;6.764;2024-02-15T08:57:11;12.32;;;4.15;;
26098;SDS011;13860;52.370;6.764;2024-02-15T09:00:19;10.57;;;4.00;;
26098;SDS011;13860;52.370;6.764;2024-02-15T09:03:28;7.95;;;3.38;;
26098;SDS011;13860;52.370;6.764;2024-02-15T09:06:34;11.52;;;3.70;;
26098;SDS011;13860;52.370;6.764;2024-02-15T09:09:41;9.45;;;3.92;;
26098;SDS011;13860;52.370;6.764;2024-02-15T09:12:47;8.82;;;3.72;;
26098;SDS011;13860;52.370;6.764;2024-02-15T09:15:57;6.78;;;3.45;;
26098;SDS011;13860;52.370;6.764;2024-02-15T09:19:03;12.23;;;4.25;;
26098;SDS011;13860;52.370;6.764;2024-02-15T09:22:10;8.20;;;3.70;;
26098;SDS011;13860;52.370;6.764;2024-02-15T09:25:16;12.07;;;3.95;;
26098;SDS011;13860;52.370;6.764;2024-02-15T09:28:24;8.90;;;3.10;;
26098;SDS011;13860;52.370;6.764;2024-02-15T09:31:32;7.38;;;2.97;;
26098;SDS011;13860;52.370;6.764;2024-02-15T09:34:40;7.00;;;2.85;;
26098;SDS011;13860;52.370;6.764;2024-02-15T09:37:46;7.57;;;3.00;;
26098;SDS011;13860;52.370;6.764;2024-02-15T09:40:56;5.90;;;3.08;;
26098;SDS011;13860;52.370;6.764;2024-02-15T09:44:01;3.70;;;2.80;;
26098;SDS011;13860;52.370;6.764;2024-02-15T09:47:11;11.10;;;3.60;;
26098;SDS011;13860;52.370;6.764;2024-02-15T09:50:20;6.13;;;2.70;;
26098;SDS011;13860;52.370;6.764;2024-02-15T09:53:30;7.97;;;2.88;;
26098;SDS011;13860;52.370;6.764;2024-02-15T09:56:37;5.82;;;2.95;;
26098;SDS011;13860;52.370;6.764;2024-02-15T09:59:46;9.43;;;2.88;;
26098;SDS011;13860;52.370;6.764;2024-02-15T10:02:54;2.72;;;2.40;;
26098;SDS011;13860;52.370;6.764;2024-02-15T10:06:03;5.43;;;2.60;;
26098;SDS011;13860;52.370;6.764;2024-02-15T10:09:29;7.70;;;2.40;;
26098;SDS011;13860;52.370;6.764;2024-02-15T10:12:37;4.50;;;2.78;;
26098;SDS011;13860;52.370;6.764;2024-02-15T10:15:45;4.68;;;2.35;;
26098;SDS011;13860;52.370;6.764;2024-02-15T10:18:55;6.40;;;2.35;;
26098;SDS011;13860;52.370;6.764;2024-02-15T10:22:14;4.05;;;2.30;;
26098;SDS011;13860;52.370;6.764;2024-02-15T10:25:21;7.95;;;1.98;;
26098;SDS011;13860;52.370;6.764;2024-02-15T10:28:27;4.60;;;2.38;;
26098;SDS011;13860;52.370;6.764;2024-02-15T10:31:34;3.35;;;2.05;;
26098;SDS011;13860;52.370;6.764;2024-02-15T10:34:46;4.05;;;1.83;;
26098;SDS011;13860;52.370;6.764;2024-02-15T10:38:05;5.10;;;1.90;;
26098;SDS011;13860;52.370;6.764;2024-02-15T10:41:12;3.08;;;2.00;;
26098;SDS011;13860;52.370;6.764;2024-02-15T10:44:21;2.95;;;1.88;;
26098;SDS011;13860;52.370;6.764;2024-02-15T10:47:28;6.85;;;2.25;;
26098;SDS011;13860;52.370;6.764;2024-02-15T10:50:40;3.60;;;2.25;;
26098;SDS011;13860;52.370;6.764;2024-02-15T10:53:47;3.85;;;2.00;;
26098;SDS011;13860;52.370;6.764;2024-02-15T10:57:03;8.77;;;2.58;;
26098;SDS011;13860;52.370;6.764;2024-02-15T11:00:11;7.65;;;2.38;;
26098;SDS011;13860;52.370;6.764;2024-02-15T11:03:25;5.40;;;2.28;;
26098;SDS011;13860;52.370;6.764;2024-02-15T11:06:38;5.32;;;2.28;;
26098;SDS011;13860;52.370;6.764;2024-02-15T11:09:50;8.43;;;1.90;;
26098;SDS011;13860;52.370;6.764;2024-02-15T11:12:56;8.95;;;2.22;;
26098;SDS011;13860;52.370;6.764;2024-02-15T11:16:04;7.53;;;1.80;;
26098;SDS011;13860;52.370;6.764;2024-02-15T11:19:10;6.75;;;2.20;;
26098;SDS011;13860;52.370;6.764;2024-02-15T11:22:40;9.27;;;2.28;;
26098;SDS011;13860;52.370;6.764;2024-02-15T11:25:46;3.88;;;2.25;;
26098;SDS011;13860;52.370;6.764;2024-02-15T11:28:54;5.28;;;1.92;;
26098;SDS011;13860;52.370;6.764;2024-02-15T11:31:59;10.18;;;3.05;;
26098;SDS011;13860;52.370;6.764;2024-02-15T11:35:09;7.22;;;2.45;;
26098;SDS011;13860;52.370;6.764;2024-02-15T11:38:29;8.65;;;2.05;;
26098;SDS011;13860;52.370;6.764;2024-02-15T11:41:38;6.03;;;2.35;;
26098;SDS011;13860;52.370;6.764;2024-02-15T11:44:43;11.82;;;3.08;;
26098;SDS011;13860;52.370;6.764;2024-02-15T11:47:52;12.02;;;2.67;;
26098;SDS011;13860;52.370;6.764;2024-02-15T11:50:58;7.22;;;2.60;;
26098;SDS011;13860;52.370;6.764;2024-02-15T11:54:08;9.52;;;2.95;;
26098;SDS011;13860;52.370;6.764;2024-02-15T11:57:15;14.55;;;2.78;;
26098;SDS011;13860;52.370;6.764;2024-02-15T12:00:40;9.45;;;2.92;;
26098;SDS011;13860;52.370;6.764;2024-02-15T12:03:58;12.65;;;3.25;;
26098;SDS011;13860;52.370;6.764;2024-02-15T12:07:18;6.90;;;3.50;;
26098;SDS011;13860;52.370;6.764;2024-02-15T12:10:39;11.13;;;3.72;;
26098;SDS011;13860;52.370;6.764;2024-02-15T12:13:59;9.20;;;3.42;;
26098;SDS011;13860;52.370;6.764;2024-02-15T12:17:17;9.63;;;3.63;;
26098;SDS011;13860;52.370;6.764;2024-02-15T12:20:36;12.23;;;4.15;;
26098;SDS011;13860;52.370;6.764;2024-02-15T12:23:42;14.52;;;3.58;;
26098;SDS011;13860;52.370;6.764;2024-02-15T12:26:52;8.88;;;3.50;;
26098;SDS011;13860;52.370;6.764;2024-02-15T12:30:06;6.43;;;3.22;;
26098;SDS011;13860;52.370;6.764;2024-02-15T12:36:25;10.60;;;4.68;;
26098;SDS011;13860;52.370;6.764;2024-02-15T12:39:33;12.40;;;3.70;;
26098;SDS011;13860;52.370;6.764;2024-02-15T12:42:41;10.65;;;3.90;;
26098;SDS011;13860;52.370;6.764;2024-02-15T12:45:51;13.88;;;3.60;;
26098;SDS011;13860;52.370;6.764;2024-02-15T12:49:09;11.88;;;3.35;;
26098;SDS011;13860;52.370;6.764;2024-02-15T12:55:41;16.45;;;4.28;;
26098;SDS011;13860;52.370;6.764;2024-02-15T12:58:55;11.98;;;3.70;;
26098;SDS011;13860;52.370;6.764;2024-02-15T13:02:01;12.27;;;3.28;;
26098;SDS011;13860;52.370;6.764;2024-02-15T13:05:09;9.85;;;3.33;;
26098;SDS011;13860;52.370;6.764;2024-02-15T13:08:15;13.65;;;3.72;;
26098;SDS011;13860;52.370;6.764;2024-02-15T13:11:23;5.93;;;3.08;;
26098;SDS011;13860;52.370;6.764;2024-02-15T13:14:32;16.10;;;4.90;;
26098;SDS011;13860;52.370;6.764;2024-02-15T13:17:39;9.00;;;3.22;;
26098;SDS011;13860;52.370;6.764;2024-02-15T13:20:45;8.88;;;3.25;;
26098;SDS011;13860;52.370;6.764;2024-02-15T13:23:57;15.73;;;5.15;;
26098;SDS011;13860;52.370;6.764;2024-02-15T13:27:07;9.07;;;3.03;;
26098;SDS011;13860;52.370;6.764;2024-02-15T13:30:18;17.70;;;4.53;;
26098;SDS011;13860;52.370;6.764;2024-02-15T13:33:28;14.48;;;4.00;;
26098;SDS011;13860;52.370;6.764;2024-02-15T13:36:37;6.28;;;2.67;;
26098;SDS011;13860;52.370;6.764;2024-02-15T13:39:42;6.88;;;2.90;;
26098;SDS011;13860;52.370;6.764;2024-02-15T13:42:51;8.57;;;3.15;;
26098;SDS011;13860;52.370;6.764;2024-02-15T13:46:03;6.25;;;2.70;;
26098;SDS011;13860;52.370;6.764;2024-02-15T13:49:10;7.90;;;3.10;;
26098;SDS011;13860;52.370;6.764;2024-02-15T13:52:30;11.23;;;2.92;;
26098;SDS011;13860;52.370;6.764;2024-02-15T13:55:38;14.23;;;3.05;;
26098;SDS011;13860;52.370;6.764;2024-02-15T13:58:43;8.15;;;3.40;;
26098;SDS011;13860;52.370;6.764;2024-02-15T14:01:54;9.02;;;3.08;;
26098;SDS011;13860;52.370;6.764;2024-02-15T14:05:00;11.00;;;2.97;;
26098;SDS011;13860;52.370;6.764;2024-02-15T14:08:12;8.80;;;2.38;;
26098;SDS011;13860;52.370;6.764;2024-02-15T14:11:17;9.68;;;2.80;;
26098;SDS011;13860;52.370;6.764;2024-02-15T14:14:25;6.72;;;2.33;;
26098;SDS011;13860;52.370;6.764;2024-02-15T14:17:33;7.72;;;2.70;;
26098;SDS011;13860;52.370;6.764;2024-02-15T14:20:40;9.80;;;2.53;;
26098;SDS011;13860;52.370;6.764;2024-02-15T14:23:49;6.30;;;2.72;;
26098;SDS011;13860;52.370;6.764;2024-02-15T14:26:57;9.73;;;2.95;;
26098;SDS011;13860;52.370;6.764;2024-02-15T14:30:03;11.00;;;3.15;;
26098;SDS011;13860;52.370;6.764;2024-02-15T14:33:26;10.02;;;2.90;;
26098;SDS011;13860;52.370;6.764;2024-02-15T14:36:35;7.68;;;2.53;;
26098;SDS011;13860;52.370;6.764;2024-02-15T14:39:43;8.13;;;3.08;;
26098;SDS011;13860;52.370;6.764;2024-02-15T14:42:48;6.22;;;2.55;;
26098;SDS011;13860;52.370;6.764;2024-02-15T14:46:00;12.35;;;3.42;;
26098;SDS011;13860;52.370;6.764;2024-02-15T14:49:10;5.53;;;2.55;;
26098;SDS011;13860;52.370;6.764;2024-02-15T14:52:17;9.23;;;3.03;;
26098;SDS011;13860;52.370;6.764;2024-02-15T14:55:23;11.07;;;3.65;;
26098;SDS011;13860;52.370;6.764;2024-02-15T14:58:30;12.95;;;2.85;;
26098;SDS011;13860;52.370;6.764;2024-02-15T15:01:37;12.95;;;4.05;;
26098;SDS011;13860;52.370;6.764;2024-02-15T15:04:47;15.65;;;3.45;;
26098;SDS011;13860;52.370;6.764;2024-02-15T15:08:22;10.50;;;2.88;;
26098;SDS011;13860;52.370;6.764;2024-02-15T15:11:42;5.93;;;2.80;;
26098;SDS011;13860;52.370;6.764;2024-02-15T15:15:00;11.73;;;3.90;;
26098;SDS011;13860;52.370;6.764;2024-02-15T15:18:09;18.55;;;2.70;;
26098;SDS011;13860;52.370;6.764;2024-02-15T15:21:18;11.57;;;3.08;;
26098;SDS011;13860;52.370;6.764;2024-02-15T15:24:27;9.75;;;2.90;;
26098;SDS011;13860;52.370;6.764;2024-02-15T15:27:34;14.02;;;4.55;;
26098;SDS011;13860;52.370;6.764;2024-02-15T15:30:41;14.43;;;3.72;;
26098;SDS011;13860;52.370;6.764;2024-02-15T15:33:51;7.65;;;2.72;;
26098;SDS011;13860;52.370;6.764;2024-02-15T15:37:02;11.40;;;3.78;;
26098;SDS011;13860;52.370;6.764;2024-02-15T15:40:09;11.00;;;4.22;;
26098;SDS011;13860;52.370;6.764;2024-02-15T15:43:17;7.15;;;3.17;;
26098;SDS011;13860;52.370;6.764;2024-02-15T15:46:23;12.27;;;2.90;;
26098;SDS011;13860;52.370;6.764;2024-02-15T15:49:31;7.85;;;2.90;;
26098;SDS011;13860;52.370;6.764;2024-02-15T15:52:39;6.18;;;2.53;;
26098;SDS011;13860;52.370;6.764;2024-02-15T15:55:48;12.30;;;3.20;;
26098;SDS011;13860;52.370;6.764;2024-02-15T15:58:54;4.60;;;2.83;;
26098;SDS011;13860;52.370;6.764;2024-02-15T16:02:02;9.73;;;2.95;;
26098;SDS011;13860;52.370;6.764;2024-02-15T16:05:08;10.55;;;2.75;;
26098;SDS011;13860;52.370;6.764;2024-02-15T16:08:20;10.95;;;3.53;;
26098;SDS011;13860;52.370;6.764;2024-02-15T16:11:25;12.93;;;3.17;;
26098;SDS011;13860;52.370;6.764;2024-02-15T16:14:33;10.15;;;3.67;;
26098;SDS011;13860;52.370;6.764;2024-02-15T16:17:42;10.98;;;2.95;;
26098;SDS011;13860;52.370;6.764;2024-02-15T16:20:50;8.13;;;3.60;;
26098;SDS011;13860;52.370;6.764;2024-02-15T16:23:59;8.95;;;3.10;;
26098;SDS011;13860;52.370;6.764;2024-02-15T16:27:07;9.50;;;3.13;;
26098;SDS011;13860;52.370;6.764;2024-02-15T16:30:12;8.88;;;3.33;;
26098;SDS011;13860;52.370;6.764;2024-02-15T16:33:20;6.35;;;3.22;;
26098;SDS011;13860;52.370;6.764;2024-02-15T16:36:26;8.77;;;3.05;;
26098;SDS011;13860;52.370;6.764;2024-02-15T16:39:36;9.70;;;3.03;;
26098;SDS011;13860;52.370;6.764;2024-02-15T16:42:44;10.60;;;3.45;;
26098;SDS011;13860;52.370;6.764;2024-02-15T16:45:55;9.15;;;3.40;;
26098;SDS011;13860;52.370;6.764;2024-02-15T16:49:00;9.30;;;3.00;;
26098;SDS011;13860;52.370;6.764;2024-02-15T16:52:09;15.07;;;3.95;;
26098;SDS011;13860;52.370;6.764;2024-02-15T16:55:20;12.52;;;3.40;;
26098;SDS011;13860;52.370;6.764;2024-02-15T16:58:33;9.50;;;3.50;;
26098;SDS011;13860;52.370;6.764;2024-02-15T17:01:38;11.50;;;4.55;;
26098;SDS011;13860;52.370;6.764;2024-02-15T17:04:46;13.70;;;3.47;;
26098;SDS011;13860;52.370;6.764;2024-02-15T17:07:51;7.30;;;3.25;;
26098;SDS011;13860;52.370;6.764;2024-02-15T17:11:03;12.27;;;3.40;;
26098;SDS011;13860;52.370;6.764;2024-02-15T17:14:08;10.70;;;3.70;;
26098;SDS011;13860;52.370;6.764;2024-02-15T17:17:18;15.52;;;5.35;;
26098;SDS011;13860;52.370;6.764;2024-02-15T17:20:24;9.45;;;3.88;;
26098;SDS011;13860;52.370;6.764;2024-02-15T17:23:31;10.25;;;3.63;;
26098;SDS011;13860;52.370;6.764;2024-02-15T17:26:43;13.27;;;4.60;;
26098;SDS011;13860;52.370;6.764;2024-02-15T17:29:51;11.40;;;3.70;;
26098;SDS011;13860;52.370;6.764;2024-02-15T17:32:56;6.18;;;3.22;;
26098;SDS011;13860;52.370;6.764;2024-02-15T17:36:05;7.90;;;3.40;;
26098;SDS011;13860;52.370;6.764;2024-02-15T17:39:11;9.50;;;3.58;;
26098;SDS011;13860;52.370;6.764;2024-02-15T17:42:23;8.55;;;3.33;;
26098;SDS011;13860;52.370;6.764;2024-02-15T17:45:28;9.98;;;3.58;;
26098;SDS011;13860;52.370;6.764;2024-02-15T17:48:36;13.07;;;3.22;;
26098;SDS011;13860;52.370;6.764;2024-02-15T17:51:43;10.35;;;3.65;;
26098;SDS011;13860;52.370;6.764;2024-02-15T17:54:51;11.00;;;2.70;;
26098;SDS011;13860;52.370;6.764;2024-02-15T17:58:01;9.50;;;2.80;;
26098;SDS011;13860;52.370;6.764;2024-02-15T18:01:09;7.00;;;2.40;;
26098;SDS011;13860;52.370;6.764;2024-02-15T18:04:15;10.95;;;2.80;;
26098;SDS011;13860;52.370;6.764;2024-02-15T18:07:23;13.90;;;3.00;;
26098;SDS011;13860;52.370;6.764;2024-02-15T18:10:31;10.13;;;3.00;;
26098;SDS011;13860;52.370;6.764;2024-02-15T18:13:41;12.07;;;2.60;;
26098;SDS011;13860;52.370;6.764;2024-02-15T18:16:46;12.38;;;2.45;;
26098;SDS011;13860;52.370;6.764;2024-02-15T18:19:54;5.55;;;2.75;;
26098;SDS011;13860;52.370;6.764;2024-02-15T18:23:01;14.95;;;3.50;;
26098;SDS011;13860;52.370;6.764;2024-02-15T18:26:09;10.50;;;2.90;;
26098;SDS011;13860;52.370;6.764;2024-02-15T18:29:17;7.22;;;2.97;;
26098;SDS011;13860;52.370;6.764;2024-02-15T18:32:24;7.38;;;2.83;;
26098;SDS011;13860;52.370;6.764;2024-02-15T18:35:30;9.02;;;2.72;;
26098;SDS011;13860;52.370;6.764;2024-02-15T18:38:38;8.18;;;2.88;;
26098;SDS011;13860;52.370;6.764;2024-02-15T18:41:44;6.90;;;3.03;;
26098;SDS011;13860;52.370;6.764;2024-02-15T18:44:56;9.23;;;3.15;;
26098;SDS011;13860;52.370;6.764;2024-02-15T18:48:03;8.18;;;2.72;;